sensor_id;sensor_type;location;lat;lon;timestamp;temperature;humidity
38380;DHT22;38377;47.418;18.882;2022-12-24T00:00:05;4.80;99.90
38380;DHT22;38377;47.418;18.882;2022-12-24T00:02:31;4.80;99.90
38380;DHT22;38377;47.418;18.882;2022-12-24T00:04:56;4.80;99.90
38380;DHT22;38377;47.418;18.882;2022-12-24T00:07:22;4.80;99.90
38380;DHT22;38377;47.418;18.882;2022-12-24T00:09:48;4.80;99.90
38380;DHT22;38377;47.418;18.882;2022-12-24T00:12:13;4.80;99.90
38380;DHT22;38377;47.418;18.882;2022-12-24T00:14:39;4.80;99.90
38380;DHT22;38377;47.418;18.882;2022-12-24T00:17:05;4.80;99.90
38380;DHT22;38377;47.418;18.882;2022-12-24T00:19:30;4.80;99.90
38380;DHT22;38377;47.418;18.882;2022-12-24T00:21:56;4.80;99.90
38380;DHT22;38377;47.418;18.882;2022-12-24T00:24:22;4.80;99.90
38380;DHT22;38377;47.418;18.882;2022-12-24T00:26:48;4.80;99.90
38380;DHT22;38377;47.418;18.882;2022-12-24T00:29:13;4.80;99.90
38380;DHT22;38377;47.418;18.882;2022-12-24T00:31:39;4.80;99.90
38380;DHT22;38377;47.418;18.882;2022-12-24T00:34:05;4.70;99.90
38380;DHT22;38377;47.418;18.882;2022-12-24T00:36:30;4.70;99.90
38380;DHT22;38377;47.418;18.882;2022-12-24T00:38:56;4.70;99.90
38380;DHT22;38377;47.418;18.882;2022-12-24T00:41:22;4.70;99.90
38380;DHT22;38377;47.418;18.882;2022-12-24T00:46:21;4.70;99.90
38380;DHT22;38377;47.418;18.882;2022-12-24T00:48:47;4.70;99.90
38380;DHT22;38377;47.418;18.882;2022-12-24T00:51:13;4.70;99.90
38380;DHT22;38377;47.418;18.882;2022-12-24T00:53:39;4.70;99.90
38380;DHT22;38377;47.418;18.882;2022-12-24T00:56:06;4.70;99.90
38380;DHT22;38377;47.418;18.882;2022-12-24T00:58:32;4.80;99.90
38380;DHT22;38377;47.418;18.882;2022-12-24T01:00:58;4.70;99.90
38380;DHT22;38377;47.418;18.882;2022-12-24T01:03:23;4.80;99.90
38380;DHT22;38377;47.418;18.882;2022-12-24T01:06:03;4.80;99.90
38380;DHT22;38377;47.418;18.882;2022-12-24T01:08:29;4.90;99.90
38380;DHT22;38377;47.418;18.882;2022-12-24T01:10:56;4.90;99.90
38380;DHT22;38377;47.418;18.882;2022-12-24T01:13:22;5.10;99.90
38380;DHT22;38377;47.418;18.882;2022-12-24T01:15:47;5.30;99.90
38380;DHT22;38377;47.418;18.882;2022-12-24T01:18:13;5.40;99.90
38380;DHT22;38377;47.418;18.882;2022-12-24T01:20:39;5.40;99.90
38380;DHT22;38377;47.418;18.882;2022-12-24T01:23:04;5.40;99.90
38380;DHT22;38377;47.418;18.882;2022-12-24T01:25:30;5.40;99.90
38380;DHT22;38377;47.418;18.882;2022-12-24T01:27:58;5.40;99.90
38380;DHT22;38377;47.418;18.882;2022-12-24T01:30:24;5.40;99.90
38380;DHT22;38377;47.418;18.882;2022-12-24T01:32:50;5.40;99.90
38380;DHT22;38377;47.418;18.882;2022-12-24T01:35:16;5.30;99.90
38380;DHT22;38377;47.418;18.882;2022-12-24T01:37:42;5.40;99.90
38380;DHT22;38377;47.418;18.882;2022-12-24T01:40:14;5.30;99.90
38380;DHT22;38377;47.418;18.882;2022-12-24T01:42:59;5.30;99.90
38380;DHT22;38377;47.418;18.882;2022-12-24T01:53:28;5.20;99.90
38380;DHT22;38377;47.418;18.882;2022-12-24T01:55:54;5.20;99.90
38380;DHT22;38377;47.418;18.882;2022-12-24T01:58:21;5.20;99.90
38380;DHT22;38377;47.418;18.882;2022-12-24T02:00:48;5.20;99.90
38380;DHT22;38377;47.418;18.882;2022-12-24T02:03:14;5.20;99.90
38380;DHT22;38377;47.418;18.882;2022-12-24T02:05:50;5.20;99.90
38380;DHT22;38377;47.418;18.882;2022-12-24T02:08:17;5.20;99.90
38380;DHT22;38377;47.418;18.882;2022-12-24T02:10:44;5.20;99.90
38380;DHT22;38377;47.418;18.882;2022-12-24T02:13:11;5.30;99.90
38380;DHT22;38377;47.418;18.882;2022-12-24T02:15:53;5.30;99.90
38380;DHT22;38377;47.418;18.882;2022-12-24T02:18:28;5.30;99.90
38380;DHT22;38377;47.418;18.882;2022-12-24T02:24:08;5.40;99.90
38380;DHT22;38377;47.418;18.882;2022-12-24T02:31:48;5.50;99.90
38380;DHT22;38377;47.418;18.882;2022-12-24T02:36:57;5.40;99.90
38380;DHT22;38377;47.418;18.882;2022-12-24T02:39:32;5.40;99.90
38380;DHT22;38377;47.418;18.882;2022-12-24T02:42:01;5.40;99.90
38380;DHT22;38377;47.418;18.882;2022-12-24T02:44:36;5.40;99.90
38380;DHT22;38377;47.418;18.882;2022-12-24T02:47:05;5.40;99.90
38380;DHT22;38377;47.418;18.882;2022-12-24T02:49:31;5.50;99.90
38380;DHT22;38377;47.418;18.882;2022-12-24T02:51:57;5.50;99.90
38380;DHT22;38377;47.418;18.882;2022-12-24T02:54:23;5.50;99.90
38380;DHT22;38377;47.418;18.882;2022-12-24T02:59:50;5.40;99.90
38380;DHT22;38377;47.418;18.882;2022-12-24T03:07:52;5.50;99.90
38380;DHT22;38377;47.418;18.882;2022-12-24T03:13:16;5.50;99.90
38380;DHT22;38377;47.418;18.882;2022-12-24T03:15:44;5.50;99.90
38380;DHT22;38377;47.418;18.882;2022-12-24T03:18:12;5.50;99.90
38380;DHT22;38377;47.418;18.882;2022-12-24T03:20:48;5.50;99.90
38380;DHT22;38377;47.418;18.882;2022-12-24T03:23:15;5.50;99.90
38380;DHT22;38377;47.418;18.882;2022-12-24T03:25:43;5.50;99.90
38380;DHT22;38377;47.418;18.882;2022-12-24T03:28:11;5.50;99.90
38380;DHT22;38377;47.418;18.882;2022-12-24T03:30:40;5.50;99.90
38380;DHT22;38377;47.418;18.882;2022-12-24T03:33:06;5.50;99.90
38380;DHT22;38377;47.418;18.882;2022-12-24T03:35:32;5.60;99.90
38380;DHT22;38377;47.418;18.882;2022-12-24T03:37:57;5.60;99.90
38380;DHT22;38377;47.418;18.882;2022-12-24T03:40:23;5.60;99.90
38380;DHT22;38377;47.418;18.882;2022-12-24T03:42:49;5.60;99.90
38380;DHT22;38377;47.418;18.882;2022-12-24T03:45:14;5.70;99.90
38380;DHT22;38377;47.418;18.882;2022-12-24T03:47:43;5.70;99.90
38380;DHT22;38377;47.418;18.882;2022-12-24T03:50:09;5.70;99.90
38380;DHT22;38377;47.418;18.882;2022-12-24T03:52:34;5.70;99.90
38380;DHT22;38377;47.418;18.882;2022-12-24T03:55:00;5.80;99.90
38380;DHT22;38377;47.418;18.882;2022-12-24T03:57:26;5.80;99.90
38380;DHT22;38377;47.418;18.882;2022-12-24T03:59:51;5.80;99.90
38380;DHT22;38377;47.418;18.882;2022-12-24T04:02:17;5.80;99.90
38380;DHT22;38377;47.418;18.882;2022-12-24T04:04:43;5.90;99.90
38380;DHT22;38377;47.418;18.882;2022-12-24T04:07:09;5.80;99.90
38380;DHT22;38377;47.418;18.882;2022-12-24T04:09:35;5.90;99.90
38380;DHT22;38377;47.418;18.882;2022-12-24T04:12:01;5.90;99.90
38380;DHT22;38377;47.418;18.882;2022-12-24T04:14:27;5.90;99.90
38380;DHT22;38377;47.418;18.882;2022-12-24T04:16:52;6.00;99.90
38380;DHT22;38377;47.418;18.882;2022-12-24T04:19:18;6.00;99.90
38380;DHT22;38377;47.418;18.882;2022-12-24T04:21:44;6.00;99.90
38380;DHT22;38377;47.418;18.882;2022-12-24T04:24:09;6.10;99.90
38380;DHT22;38377;47.418;18.882;2022-12-24T04:26:35;6.10;99.90
38380;DHT22;38377;47.418;18.882;2022-12-24T04:29:01;6.10;99.90
38380;DHT22;38377;47.418;18.882;2022-12-24T04:31:26;6.10;99.90
38380;DHT22;38377;47.418;18.882;2022-12-24T04:33:52;6.10;99.90
38380;DHT22;38377;47.418;18.882;2022-12-24T04:36:19;6.10;99.90
38380;DHT22;38377;47.418;18.882;2022-12-24T04:38:45;6.10;99.90
38380;DHT22;38377;47.418;18.882;2022-12-24T04:41:17;6.00;99.90
38380;DHT22;38377;47.418;18.882;2022-12-24T04:43:43;6.00;99.90
38380;DHT22;38377;47.418;18.882;2022-12-24T04:46:15;6.00;99.90
38380;DHT22;38377;47.418;18.882;2022-12-24T04:48:46;6.00;99.90
38380;DHT22;38377;47.418;18.882;2022-12-24T04:51:13;6.10;99.90
38380;DHT22;38377;47.418;18.882;2022-12-24T04:53:40;6.10;99.90
38380;DHT22;38377;47.418;18.882;2022-12-24T04:56:18;6.10;99.90
38380;DHT22;38377;47.418;18.882;2022-12-24T04:58:45;6.10;99.90
38380;DHT22;38377;47.418;18.882;2022-12-24T05:01:17;6.00;99.90
38380;DHT22;38377;47.418;18.882;2022-12-24T05:03:42;6.00;99.90
38380;DHT22;38377;47.418;18.882;2022-12-24T05:06:11;6.10;99.90
38380;DHT22;38377;47.418;18.882;2022-12-24T05:08:37;6.10;99.90
38380;DHT22;38377;47.418;18.882;2022-12-24T05:11:03;6.00;99.90
38380;DHT22;38377;47.418;18.882;2022-12-24T05:13:30;6.00;99.90
38380;DHT22;38377;47.418;18.882;2022-12-24T05:15:56;6.00;99.90
38380;DHT22;38377;47.418;18.882;2022-12-24T05:18:22;6.00;99.90
38380;DHT22;38377;47.418;18.882;2022-12-24T05:20:49;6.00;99.90
38380;DHT22;38377;47.418;18.882;2022-12-24T05:23:16;6.00;99.90
38380;DHT22;38377;47.418;18.882;2022-12-24T05:26:01;6.00;99.90
38380;DHT22;38377;47.418;18.882;2022-12-24T05:28:45;6.00;99.90
38380;DHT22;38377;47.418;18.882;2022-12-24T05:31:11;6.00;99.90
38380;DHT22;38377;47.418;18.882;2022-12-24T05:33:36;6.00;99.90
38380;DHT22;38377;47.418;18.882;2022-12-24T05:36:02;5.90;99.90
38380;DHT22;38377;47.418;18.882;2022-12-24T05:38:28;5.80;99.90
38380;DHT22;38377;47.418;18.882;2022-12-24T05:40:54;5.80;99.90
38380;DHT22;38377;47.418;18.882;2022-12-24T05:43:19;5.80;99.90
38380;DHT22;38377;47.418;18.882;2022-12-24T05:45:45;5.70;99.90
38380;DHT22;38377;47.418;18.882;2022-12-24T05:48:11;5.70;99.90
38380;DHT22;38377;47.418;18.882;2022-12-24T05:50:38;5.70;99.90
38380;DHT22;38377;47.418;18.882;2022-12-24T05:53:05;5.80;99.90
38380;DHT22;38377;47.418;18.882;2022-12-24T05:55:31;6.00;99.90
38380;DHT22;38377;47.418;18.882;2022-12-24T05:57:57;6.00;99.90
38380;DHT22;38377;47.418;18.882;2022-12-24T06:00:22;6.10;99.90
38380;DHT22;38377;47.418;18.882;2022-12-24T06:02:48;6.20;99.90
38380;DHT22;38377;47.418;18.882;2022-12-24T06:05:14;6.30;99.90
38380;DHT22;38377;47.418;18.882;2022-12-24T06:07:40;6.30;99.90
38380;DHT22;38377;47.418;18.882;2022-12-24T06:10:06;6.40;99.90
38380;DHT22;38377;47.418;18.882;2022-12-24T06:12:32;6.40;99.90
38380;DHT22;38377;47.418;18.882;2022-12-24T06:14:57;6.40;99.90
38380;DHT22;38377;47.418;18.882;2022-12-24T06:17:23;6.40;99.90
38380;DHT22;38377;47.418;18.882;2022-12-24T06:19:48;6.40;99.90
38380;DHT22;38377;47.418;18.882;2022-12-24T06:22:14;6.40;99.90
38380;DHT22;38377;47.418;18.882;2022-12-24T06:24:40;6.50;99.90
38380;DHT22;38377;47.418;18.882;2022-12-24T06:27:05;6.60;99.90
38380;DHT22;38377;47.418;18.882;2022-12-24T06:29:31;6.60;99.90
38380;DHT22;38377;47.418;18.882;2022-12-24T06:31:57;6.60;99.90
38380;DHT22;38377;47.418;18.882;2022-12-24T06:34:22;6.70;99.90
38380;DHT22;38377;47.418;18.882;2022-12-24T06:36:48;6.70;99.90
38380;DHT22;38377;47.418;18.882;2022-12-24T06:39:14;6.70;99.90
38380;DHT22;38377;47.418;18.882;2022-12-24T06:41:39;6.70;99.90
38380;DHT22;38377;47.418;18.882;2022-12-24T06:44:05;6.70;99.90
38380;DHT22;38377;47.418;18.882;2022-12-24T06:46:31;6.60;99.90
38380;DHT22;38377;47.418;18.882;2022-12-24T06:48:56;6.60;99.90
38380;DHT22;38377;47.418;18.882;2022-12-24T06:51:22;6.60;99.90
38380;DHT22;38377;47.418;18.882;2022-12-24T06:53:48;6.60;99.90
38380;DHT22;38377;47.418;18.882;2022-12-24T06:56:18;6.70;99.90
38380;DHT22;38377;47.418;18.882;2022-12-24T06:58:44;6.70;99.90
38380;DHT22;38377;47.418;18.882;2022-12-24T07:01:13;6.70;99.90
38380;DHT22;38377;47.418;18.882;2022-12-24T07:03:39;6.70;99.90
38380;DHT22;38377;47.418;18.882;2022-12-24T07:06:05;6.90;99.90
38380;DHT22;38377;47.418;18.882;2022-12-24T07:08:31;7.20;99.90
38380;DHT22;38377;47.418;18.882;2022-12-24T07:11:01;7.40;99.90
38380;DHT22;38377;47.418;18.882;2022-12-24T07:13:26;7.60;99.90
38380;DHT22;38377;47.418;18.882;2022-12-24T07:15:59;7.70;99.90
38380;DHT22;38377;47.418;18.882;2022-12-24T07:18:25;7.80;99.90
38380;DHT22;38377;47.418;18.882;2022-12-24T07:20:51;8.00;99.90
38380;DHT22;38377;47.418;18.882;2022-12-24T07:23:17;8.20;99.90
38380;DHT22;38377;47.418;18.882;2022-12-24T07:25:42;8.20;99.90
38380;DHT22;38377;47.418;18.882;2022-12-24T07:28:08;8.30;99.90
38380;DHT22;38377;47.418;18.882;2022-12-24T07:30:34;8.40;99.90
38380;DHT22;38377;47.418;18.882;2022-12-24T07:33:00;8.40;99.90
38380;DHT22;38377;47.418;18.882;2022-12-24T07:35:25;8.40;99.90
38380;DHT22;38377;47.418;18.882;2022-12-24T07:37:51;8.50;99.90
38380;DHT22;38377;47.418;18.882;2022-12-24T07:40:17;8.50;99.90
38380;DHT22;38377;47.418;18.882;2022-12-24T07:42:42;8.50;99.90
38380;DHT22;38377;47.418;18.882;2022-12-24T07:45:08;8.50;99.90
38380;DHT22;38377;47.418;18.882;2022-12-24T07:47:34;8.60;99.90
38380;DHT22;38377;47.418;18.882;2022-12-24T07:50:00;8.70;99.90
38380;DHT22;38377;47.418;18.882;2022-12-24T07:52:26;8.70;99.90
38380;DHT22;38377;47.418;18.882;2022-12-24T07:54:51;8.80;99.90
38380;DHT22;38377;47.418;18.882;2022-12-24T07:57:17;8.80;99.90
38380;DHT22;38377;47.418;18.882;2022-12-24T07:59:43;9.00;99.90
38380;DHT22;38377;47.418;18.882;2022-12-24T08:02:12;9.10;99.90
38380;DHT22;38377;47.418;18.882;2022-12-24T08:04:37;9.10;99.90
38380;DHT22;38377;47.418;18.882;2022-12-24T08:07:04;9.20;99.90
38380;DHT22;38377;47.418;18.882;2022-12-24T08:09:32;9.30;99.90
38380;DHT22;38377;47.418;18.882;2022-12-24T08:11:57;9.40;99.90
38380;DHT22;38377;47.418;18.882;2022-12-24T08:14:23;9.50;99.90
38380;DHT22;38377;47.418;18.882;2022-12-24T08:16:49;9.60;99.90
38380;DHT22;38377;47.418;18.882;2022-12-24T08:19:14;9.60;99.90
38380;DHT22;38377;47.418;18.882;2022-12-24T08:21:40;9.70;99.90
38380;DHT22;38377;47.418;18.882;2022-12-24T08:24:06;9.90;99.90
38380;DHT22;38377;47.418;18.882;2022-12-24T08:26:32;9.90;99.90
38380;DHT22;38377;47.418;18.882;2022-12-24T08:28:57;9.80;99.90
38380;DHT22;38377;47.418;18.882;2022-12-24T08:31:23;9.90;99.90
38380;DHT22;38377;47.418;18.882;2022-12-24T08:33:48;9.90;99.90
38380;DHT22;38377;47.418;18.882;2022-12-24T08:36:14;10.00;99.90
38380;DHT22;38377;47.418;18.882;2022-12-24T08:38:40;10.10;99.90
38380;DHT22;38377;47.418;18.882;2022-12-24T08:41:05;10.00;99.90
38380;DHT22;38377;47.418;18.882;2022-12-24T08:43:31;10.00;99.90
38380;DHT22;38377;47.418;18.882;2022-12-24T08:46:04;10.00;99.90
38380;DHT22;38377;47.418;18.882;2022-12-24T08:48:31;9.90;99.90
38380;DHT22;38377;47.418;18.882;2022-12-24T08:50:57;10.00;99.90
38380;DHT22;38377;47.418;18.882;2022-12-24T08:53:22;10.00;99.90
38380;DHT22;38377;47.418;18.882;2022-12-24T08:55:48;9.90;99.90
38380;DHT22;38377;47.418;18.882;2022-12-24T08:58:14;10.00;99.90
38380;DHT22;38377;47.418;18.882;2022-12-24T09:00:39;10.00;99.90
38380;DHT22;38377;47.418;18.882;2022-12-24T09:03:05;10.00;99.90
38380;DHT22;38377;47.418;18.882;2022-12-24T09:05:31;9.90;99.90
38380;DHT22;38377;47.418;18.882;2022-12-24T09:07:57;9.90;99.90
38380;DHT22;38377;47.418;18.882;2022-12-24T09:10:23;9.90;99.90
38380;DHT22;38377;47.418;18.882;2022-12-24T09:12:50;9.80;99.90
38380;DHT22;38377;47.418;18.882;2022-12-24T09:15:16;9.80;99.90
38380;DHT22;38377;47.418;18.882;2022-12-24T09:17:42;9.70;99.90
38380;DHT22;38377;47.418;18.882;2022-12-24T09:20:08;9.70;99.90
38380;DHT22;38377;47.418;18.882;2022-12-24T09:22:35;9.60;99.90
38380;DHT22;38377;47.418;18.882;2022-12-24T09:25:01;9.70;99.90
38380;DHT22;38377;47.418;18.882;2022-12-24T09:27:29;9.70;99.90
38380;DHT22;38377;47.418;18.882;2022-12-24T09:29:55;9.70;99.90
38380;DHT22;38377;47.418;18.882;2022-12-24T09:32:21;9.70;99.90
38380;DHT22;38377;47.418;18.882;2022-12-24T09:34:47;9.70;99.90
38380;DHT22;38377;47.418;18.882;2022-12-24T09:37:13;9.70;99.90
38380;DHT22;38377;47.418;18.882;2022-12-24T09:39:38;9.80;99.90
38380;DHT22;38377;47.418;18.882;2022-12-24T09:45:10;9.90;99.90
38380;DHT22;38377;47.418;18.882;2022-12-24T09:47:41;10.00;99.90
38380;DHT22;38377;47.418;18.882;2022-12-24T09:52:58;10.10;99.90
38380;DHT22;38377;47.418;18.882;2022-12-24T09:55:42;10.20;99.90
38380;DHT22;38377;47.418;18.882;2022-12-24T09:58:18;10.20;99.90
38380;DHT22;38377;47.418;18.882;2022-12-24T10:00:45;10.20;99.90
38380;DHT22;38377;47.418;18.882;2022-12-24T10:03:14;10.30;99.90
38380;DHT22;38377;47.418;18.882;2022-12-24T10:08:23;10.30;99.90
38380;DHT22;38377;47.418;18.882;2022-12-24T10:10:56;10.40;99.90
38380;DHT22;38377;47.418;18.882;2022-12-24T10:17:26;10.40;99.90
38380;DHT22;38377;47.418;18.882;2022-12-24T10:27:39;10.60;99.90
38380;DHT22;38377;47.418;18.882;2022-12-24T10:30:18;10.60;99.90
38380;DHT22;38377;47.418;18.882;2022-12-24T10:32:47;10.70;99.90
38380;DHT22;38377;47.418;18.882;2022-12-24T10:37:43;10.80;99.90
38380;DHT22;38377;47.418;18.882;2022-12-24T10:40:40;10.80;99.90
38380;DHT22;38377;47.418;18.882;2022-12-24T10:43:15;10.90;99.90
38380;DHT22;38377;47.418;18.882;2022-12-24T10:45:45;11.00;99.90
38380;DHT22;38377;47.418;18.882;2022-12-24T10:54:15;11.20;99.90
38380;DHT22;38377;47.418;18.882;2022-12-24T10:56:43;11.20;99.90
38380;DHT22;38377;47.418;18.882;2022-12-24T10:59:42;11.20;99.90
38380;DHT22;38377;47.418;18.882;2022-12-24T11:02:34;11.20;99.90
38380;DHT22;38377;47.418;18.882;2022-12-24T11:05:02;11.20;99.90
38380;DHT22;38377;47.418;18.882;2022-12-24T11:07:30;11.20;99.90
38380;DHT22;38377;47.418;18.882;2022-12-24T11:10:07;11.30;99.90
38380;DHT22;38377;47.418;18.882;2022-12-24T11:12:46;11.30;99.90
38380;DHT22;38377;47.418;18.882;2022-12-24T11:15:28;11.40;99.90
38380;DHT22;38377;47.418;18.882;2022-12-24T11:18:02;11.40;99.90
38380;DHT22;38377;47.418;18.882;2022-12-24T11:20:31;11.30;99.90
38380;DHT22;38377;47.418;18.882;2022-12-24T11:22:58;11.30;99.90
38380;DHT22;38377;47.418;18.882;2022-12-24T11:25:27;11.30;99.90
38380;DHT22;38377;47.418;18.882;2022-12-24T11:27:54;11.20;99.90
38380;DHT22;38377;47.418;18.882;2022-12-24T11:30:30;11.20;99.90
38380;DHT22;38377;47.418;18.882;2022-12-24T11:35:30;11.20;99.90
38380;DHT22;38377;47.418;18.882;2022-12-24T11:40:34;11.10;99.90
38380;DHT22;38377;47.418;18.882;2022-12-24T11:43:02;11.10;99.90
38380;DHT22;38377;47.418;18.882;2022-12-24T11:45:30;11.10;99.90
38380;DHT22;38377;47.418;18.882;2022-12-24T11:47:57;11.10;99.90
38380;DHT22;38377;47.418;18.882;2022-12-24T11:50:31;11.10;99.90
38380;DHT22;38377;47.418;18.882;2022-12-24T11:55:51;11.20;99.90
38380;DHT22;38377;47.418;18.882;2022-12-24T12:00:48;11.20;99.90
38380;DHT22;38377;47.418;18.882;2022-12-24T12:06:48;11.30;99.90
38380;DHT22;38377;47.418;18.882;2022-12-24T12:09:22;11.40;99.90
38380;DHT22;38377;47.418;18.882;2022-12-24T12:11:58;11.40;99.90
38380;DHT22;38377;47.418;18.882;2022-12-24T12:14:36;11.50;99.90
38380;DHT22;38377;47.418;18.882;2022-12-24T12:17:28;11.50;99.90
38380;DHT22;38377;47.418;18.882;2022-12-24T12:23:01;11.60;99.90
38380;DHT22;38377;47.418;18.882;2022-12-24T12:25:50;11.60;99.90
38380;DHT22;38377;47.418;18.882;2022-12-24T12:31:25;11.60;99.90
38380;DHT22;38377;47.418;18.882;2022-12-24T12:34:14;11.50;99.90
38380;DHT22;38377;47.418;18.882;2022-12-24T12:36:48;11.50;99.90
38380;DHT22;38377;47.418;18.882;2022-12-24T12:39:14;11.50;99.90
38380;DHT22;38377;47.418;18.882;2022-12-24T12:57:33;11.20;99.90
38380;DHT22;38377;47.418;18.882;2022-12-24T13:00:15;11.20;99.90
38380;DHT22;38377;47.418;18.882;2022-12-24T13:06:11;11.10;99.90
38380;DHT22;38377;47.418;18.882;2022-12-24T13:11:49;11.10;99.90
38380;DHT22;38377;47.418;18.882;2022-12-24T13:14:28;11.00;99.90
38380;DHT22;38377;47.418;18.882;2022-12-24T13:17:26;11.10;99.90
38380;DHT22;38377;47.418;18.882;2022-12-24T13:20:16;11.10;99.90
38380;DHT22;38377;47.418;18.882;2022-12-24T13:25:49;11.00;99.90
38380;DHT22;38377;47.418;18.882;2022-12-24T13:36:09;11.00;99.90
38380;DHT22;38377;47.418;18.882;2022-12-24T13:38:41;11.00;99.90
38380;DHT22;38377;47.418;18.882;2022-12-24T13:41:48;11.10;99.90
38380;DHT22;38377;47.418;18.882;2022-12-24T13:49:20;11.30;99.90
38380;DHT22;38377;47.418;18.882;2022-12-24T13:51:46;11.30;99.90
38380;DHT22;38377;47.418;18.882;2022-12-24T13:54:14;11.30;99.90
38380;DHT22;38377;47.418;18.882;2022-12-24T13:56:42;11.30;99.90
38380;DHT22;38377;47.418;18.882;2022-12-24T14:01:48;11.30;99.90
38380;DHT22;38377;47.418;18.882;2022-12-24T14:04:25;11.20;99.90
38380;DHT22;38377;47.418;18.882;2022-12-24T14:06:52;11.10;99.90
38380;DHT22;38377;47.418;18.882;2022-12-24T14:09:20;11.10;99.90
38380;DHT22;38377;47.418;18.882;2022-12-24T14:19:49;10.80;99.90
38380;DHT22;38377;47.418;18.882;2022-12-24T14:22:43;10.70;99.90
38380;DHT22;38377;47.418;18.882;2022-12-24T14:25:16;10.60;99.90
38380;DHT22;38377;47.418;18.882;2022-12-24T14:27:50;10.50;99.90
38380;DHT22;38377;47.418;18.882;2022-12-24T14:30:22;10.50;99.90
38380;DHT22;38377;47.418;18.882;2022-12-24T14:32:49;10.50;99.90
38380;DHT22;38377;47.418;18.882;2022-12-24T14:35:28;10.40;99.90
38380;DHT22;38377;47.418;18.882;2022-12-24T14:38:02;10.30;99.90
38380;DHT22;38377;47.418;18.882;2022-12-24T14:40:31;10.30;99.90
38380;DHT22;38377;47.418;18.882;2022-12-24T14:43:09;10.30;99.90
38380;DHT22;38377;47.418;18.882;2022-12-24T14:46:17;10.20;99.90
38380;DHT22;38377;47.418;18.882;2022-12-24T14:48:54;10.20;99.90
38380;DHT22;38377;47.418;18.882;2022-12-24T14:56:39;10.10;99.90
38380;DHT22;38377;47.418;18.882;2022-12-24T14:59:19;10.10;99.90
38380;DHT22;38377;47.418;18.882;2022-12-24T15:01:45;10.10;99.90
38380;DHT22;38377;47.418;18.882;2022-12-24T15:06:48;10.00;99.90
38380;DHT22;38377;47.418;18.882;2022-12-24T15:09:23;10.10;99.90
38380;DHT22;38377;47.418;18.882;2022-12-24T15:11:52;10.10;99.90
38380;DHT22;38377;47.418;18.882;2022-12-24T15:14:21;10.00;99.90
38380;DHT22;38377;47.418;18.882;2022-12-24T15:16:53;10.00;99.90
38380;DHT22;38377;47.418;18.882;2022-12-24T15:21:48;9.90;99.90
38380;DHT22;38377;47.418;18.882;2022-12-24T15:24:33;9.90;99.90
38380;DHT22;38377;47.418;18.882;2022-12-24T15:27:01;9.90;99.90
38380;DHT22;38377;47.418;18.882;2022-12-24T15:29:31;9.90;99.90
38380;DHT22;38377;47.418;18.882;2022-12-24T15:32:02;9.80;99.90
38380;DHT22;38377;47.418;18.882;2022-12-24T15:34:39;9.80;99.90
38380;DHT22;38377;47.418;18.882;2022-12-24T15:39:40;9.70;99.90
38380;DHT22;38377;47.418;18.882;2022-12-24T15:42:07;9.80;99.90
38380;DHT22;38377;47.418;18.882;2022-12-24T15:45:25;9.80;99.90
38380;DHT22;38377;47.418;18.882;2022-12-24T15:47:34;9.70;99.90
38380;DHT22;38377;47.418;18.882;2022-12-24T15:50:13;9.70;99.90
38380;DHT22;38377;47.418;18.882;2022-12-24T15:52:41;9.60;99.90
38380;DHT22;38377;47.418;18.882;2022-12-24T15:55:43;9.60;99.90
38380;DHT22;38377;47.418;18.882;2022-12-24T15:58:23;9.70;99.90
38380;DHT22;38377;47.418;18.882;2022-12-24T16:01:05;9.60;99.90
38380;DHT22;38377;47.418;18.882;2022-12-24T16:06:15;9.40;99.90
38380;DHT22;38377;47.418;18.882;2022-12-24T16:08:42;9.30;99.90
38380;DHT22;38377;47.418;18.882;2022-12-24T16:16:40;9.00;99.90
38380;DHT22;38377;47.418;18.882;2022-12-24T16:19:49;9.00;99.90
38380;DHT22;38377;47.418;18.882;2022-12-24T16:22:09;9.00;99.90
38380;DHT22;38377;47.418;18.882;2022-12-24T16:24:54;9.00;99.90
38380;DHT22;38377;47.418;18.882;2022-12-24T16:27:20;9.00;99.90
38380;DHT22;38377;47.418;18.882;2022-12-24T16:29:46;8.90;99.90
38380;DHT22;38377;47.418;18.882;2022-12-24T16:32:32;8.90;99.90
38380;DHT22;38377;47.418;18.882;2022-12-24T16:34:59;8.80;99.90
38380;DHT22;38377;47.418;18.882;2022-12-24T16:37:26;8.70;99.90
38380;DHT22;38377;47.418;18.882;2022-12-24T16:39:53;8.70;99.90
38380;DHT22;38377;47.418;18.882;2022-12-24T16:42:19;8.60;99.90
38380;DHT22;38377;47.418;18.882;2022-12-24T16:45:05;8.70;99.90
38380;DHT22;38377;47.418;18.882;2022-12-24T16:47:34;8.70;99.90
38380;DHT22;38377;47.418;18.882;2022-12-24T16:50:02;8.70;99.90
38380;DHT22;38377;47.418;18.882;2022-12-24T16:52:29;8.70;99.90
38380;DHT22;38377;47.418;18.882;2022-12-24T16:54:59;8.70;99.90
38380;DHT22;38377;47.418;18.882;2022-12-24T16:57:25;8.60;99.90
38380;DHT22;38377;47.418;18.882;2022-12-24T16:59:52;8.60;99.90
38380;DHT22;38377;47.418;18.882;2022-12-24T17:02:20;8.60;99.90
38380;DHT22;38377;47.418;18.882;2022-12-24T17:04:47;8.50;99.90
38380;DHT22;38377;47.418;18.882;2022-12-24T17:07:16;8.50;99.90
38380;DHT22;38377;47.418;18.882;2022-12-24T17:09:42;8.40;99.90
38380;DHT22;38377;47.418;18.882;2022-12-24T17:12:08;8.50;99.90
38380;DHT22;38377;47.418;18.882;2022-12-24T17:14:34;8.60;99.90
38380;DHT22;38377;47.418;18.882;2022-12-24T17:17:00;8.70;99.90
38380;DHT22;38377;47.418;18.882;2022-12-24T17:19:26;8.80;99.90
38380;DHT22;38377;47.418;18.882;2022-12-24T17:21:51;8.80;99.90
38380;DHT22;38377;47.418;18.882;2022-12-24T17:24:17;8.80;99.90
38380;DHT22;38377;47.418;18.882;2022-12-24T17:26:43;8.80;99.90
38380;DHT22;38377;47.418;18.882;2022-12-24T17:29:09;8.80;99.90
38380;DHT22;38377;47.418;18.882;2022-12-24T17:31:35;8.80;99.90
38380;DHT22;38377;47.418;18.882;2022-12-24T17:34:03;8.80;99.90
38380;DHT22;38377;47.418;18.882;2022-12-24T17:36:29;8.80;99.90
38380;DHT22;38377;47.418;18.882;2022-12-24T17:38:55;8.80;99.90
38380;DHT22;38377;47.418;18.882;2022-12-24T17:41:21;8.70;99.90
38380;DHT22;38377;47.418;18.882;2022-12-24T17:43:47;8.60;99.90
38380;DHT22;38377;47.418;18.882;2022-12-24T17:46:21;8.60;99.90
38380;DHT22;38377;47.418;18.882;2022-12-24T17:48:48;8.50;99.90
38380;DHT22;38377;47.418;18.882;2022-12-24T17:51:17;8.50;99.90
38380;DHT22;38377;47.418;18.882;2022-12-24T17:53:43;8.40;99.90
38380;DHT22;38377;47.418;18.882;2022-12-24T17:56:10;8.30;99.90
38380;DHT22;38377;47.418;18.882;2022-12-24T17:58:38;8.30;99.90
38380;DHT22;38377;47.418;18.882;2022-12-24T18:01:04;8.20;99.90
38380;DHT22;38377;47.418;18.882;2022-12-24T18:03:30;8.20;99.90
38380;DHT22;38377;47.418;18.882;2022-12-24T18:06:02;8.30;99.90
38380;DHT22;38377;47.418;18.882;2022-12-24T18:08:28;8.30;99.90
38380;DHT22;38377;47.418;18.882;2022-12-24T18:10:54;8.40;99.90